Time;durP1;ratioP1;P1;durP2;ratioP2;P2;SDS_P1;SDS_P2;PMS_P1;PMS_P2;Temp;Humidity;BMP_temperature;BMP_pressure;BME280_temperature;BME280_humidity;BME280_pressure;Samples;Min_cycle;Max_cycle;Signal;HPM_P1;HPM_P2
2022/06/12 00:02:00;;;;;;;;;;;;;;;;;;5014508;28;19928;-75
2022/06/12 00:04:27;;;;;;;;;;;;;;;;;;5014326;28;20403;-75
2022/06/12 00:06:53;;;;;;;;;;;;;;;;;;5014184;28;20388;-75
2022/06/12 00:09:20;;;;;;;;;;;;;;;;;;5014453;28;19921;-75
2022/06/12 00:11:48;;;;;;;;;;;;;;;;;;5014558;28;19921;-75
2022/06/12 00:14:15;;;;;;;;;;;;;;;;;;5014195;28;20017;-75
2022/06/12 00:16:43;;;;;;;;;;;;;;;;;;5014759;28;19944;-75
2022/06/12 00:19:09;;;;;;;;;;;;;;;;;;5014430;28;20008;-75
2022/06/12 00:21:36;;;;;;;;;;;;;;;;;;5013830;28;20011;-75
2022/06/12 00:24:04;;;;;;;;;;;;;;;;;;5013927;28;20012;-75
2022/06/12 00:26:32;;;;;;;;;;;;;;;;;;5014211;28;19921;-76
2022/06/12 00:29:01;;;;;;;;;;;;;;;;;;5014144;28;19929;-76
2022/06/12 00:31:28;;;;;;;;;;;;;;;;;;5014449;28;20001;-76
2022/06/12 00:33:55;;;;;;;;;;;;;;;;;;5013717;28;20431;-75
2022/06/12 00:36:21;;;;;;;;;;;;;;;;;;5014228;28;19957;-74
2022/06/12 00:38:48;;;;;;;;;;;;;;;;;;5013661;28;20016;-75
2022/06/12 00:41:14;;;;;;;;;;;;;;;;;;5013551;28;20431;-75
2022/06/12 00:43:41;;;;;;;;;;;;;;;;;;5013416;28;20361;-75
2022/06/12 00:46:09;;;;;;;;;;;;;;;;;;5013937;28;20344;-76
2022/06/12 00:48:37;;;;;;;;;;;;;;;;;;5013996;28;20012;-75
2022/06/12 00:51:06;;;;;;;;;;;;;;;;;;5013674;28;20011;-75
2022/06/12 00:53:34;;;;;;;;;;;;;;;;;;5013900;28;19921;-75
2022/06/12 00:56:04;;;;;;;;;;;;;;;;;;5013799;28;19961;-75
2022/06/12 00:58:32;;;;;;;;;;;;;;;;;;5013598;28;19967;-75
2022/06/12 01:00:59;;;;;;;;;;;;;;;;;;5012816;28;19981;-75
2022/06/12 01:03:27;;;;;;;;;;;;;;;;;;5013755;28;20000;-75
2022/06/12 01:08:37;;;;;;;;;;;;;;;;;;5009768;28;20032;-75
2022/06/12 01:11:06;;;;;;;;;;;;;;;;;;5013088;28;20012;-76
2022/06/12 01:13:36;;;;;;;;;;;;;;;;;;5013160;28;19957;-76
2022/06/12 01:16:05;;;;;;;;;;;;;;;;;;5013663;28;19973;-76
2022/06/12 01:18:35;;;;;;;;;;;;;;;;;;5013640;28;19979;-75
2022/06/12 01:21:04;;;;;;;;;;;;;;;;;;5013282;28;19921;-75
2022/06/12 01:23:48;;;;;;;;;;;;;;;;;;5013232;28;19972;-76
2022/06/12 01:26:30;;;;;;;;;;;;;;;;;;5013655;28;19971;-76
2022/06/12 01:32:04;;;;;;;;;;;;;;;;;;5010521;28;19920;-75
2022/06/12 01:34:36;;;;;;;;;;;;;;;;;;5013294;28;20032;-76
2022/06/12 01:37:13;;;;;;;;;;;;;;;;;;5012916;28;20295;-74
2022/06/12 01:39:43;;;;;;;;;;;;;;;;;;5012861;28;19987;-75
2022/06/12 01:42:16;;;;;;;;;;;;;;;;;;5013774;28;19996;-75
2022/06/12 01:44:45;;;;;;;;;;;;;;;;;;5013642;28;19921;-75
2022/06/12 01:47:17;;;;;;;;;;;;;;;;;;5013158;28;19975;-75
2022/06/12 01:49:48;;;;;;;;;;;;;;;;;;5013317;28;19928;-76
2022/06/12 01:52:18;;;;;;;;;;;;;;;;;;5013845;28;19927;-76
2022/06/12 01:54:48;;;;;;;;;;;;;;;;;;5014514;28;19956;-76
2022/06/12 01:57:17;;;;;;;;;;;;;;;;;;5013773;28;19967;-75
2022/06/12 01:59:47;;;;;;;;;;;;;;;;;;5013730;28;19982;-76
2022/06/12 02:02:17;;;;;;;;;;;;;;;;;;5013668;28;20024;-76
2022/06/12 02:04:48;;;;;;;;;;;;;;;;;;5013645;28;20415;-75
2022/06/12 02:07:17;;;;;;;;;;;;;;;;;;5013806;28;19922;-75
2022/06/12 02:09:46;;;;;;;;;;;;;;;;;;5014699;28;19972;-75
2022/06/12 02:15:01;;;;;;;;;;;;;;;;;;5019502;28;19928;-76
2022/06/12 02:17:32;;;;;;;;;;;;;;;;;;5017904;28;19975;-76
2022/06/12 02:19:59;;;;;;;;;;;;;;;;;;5016818;28;19921;-75
2022/06/12 02:22:27;;;;;;;;;;;;;;;;;;5016716;28;19969;-75
2022/06/12 02:24:55;;;;;;;;;;;;;;;;;;5017113;28;20004;-76
2022/06/12 02:27:24;;;;;;;;;;;;;;;;;;5017423;28;19928;-75
2022/06/12 02:29:52;;;;;;;;;;;;;;;;;;5016646;28;20011;-76
2022/06/12 02:32:20;;;;;;;;;;;;;;;;;;5017106;28;19921;-75
2022/06/12 02:34:50;;;;;;;;;;;;;;;;;;5016954;28;20376;-75
2022/06/12 02:37:18;;;;;;;;;;;;;;;;;;5016985;28;20000;-75
2022/06/12 02:39:47;;;;;;;;;;;;;;;;;;5016409;28;20012;-73
2022/06/12 02:42:15;;;;;;;;;;;;;;;;;;5016460;28;19921;-75
2022/06/12 02:44:44;;;;;;;;;;;;;;;;;;5060269;22;19920;-77
2022/06/12 02:47:13;;;;;;;;;;;;;;;;;;5039666;28;19921;-76
2022/06/12 02:49:42;;;;;;;;;;;;;;;;;;5039189;28;19987;-77
2022/06/12 02:52:13;;;;;;;;;;;;;;;;;;5039226;28;19921;-77
2022/06/12 02:54:44;;;;;;;;;;;;;;;;;;5039108;28;20371;-76
2022/06/12 02:57:12;;;;;;;;;;;;;;;;;;5039010;28;19967;-76
2022/06/12 02:59:46;;;;;;;;;;;;;;;;;;5037961;28;19921;-76
2022/06/12 03:02:16;;;;;;;;;;;;;;;;;;5037851;28;19963;-77
2022/06/12 03:04:46;;;;;;;;;;;;;;;;;;5037279;28;20004;-76
2022/06/12 03:07:15;;;;;;;;;;;;;;;;;;5037743;28;19944;-77
2022/06/12 03:09:42;;;;;;;;;;;;;;;;;;5037857;28;19925;-78
2022/06/12 03:12:09;;;;;;;;;;;;;;;;;;5038214;28;20314;-77
2022/06/12 03:14:36;;;;;;;;;;;;;;;;;;5038095;28;20323;-77
2022/06/12 03:17:02;;;;;;;;;;;;;;;;;;5038013;28;20364;-77
2022/06/12 03:19:30;;;;;;;;;;;;;;;;;;5037812;28;19928;-79
2022/06/12 03:22:02;;;;;;;;;;;;;;;;;;5037984;28;19983;-77
2022/06/12 03:24:35;;;;;;;;;;;;;;;;;;5037475;28;20015;-77
2022/06/12 03:27:15;;;;;;;;;;;;;;;;;;5038541;28;19925;-77
2022/06/12 03:29:46;;;;;;;;;;;;;;;;;;5037501;28;19933;-76
2022/06/12 03:32:18;;;;;;;;;;;;;;;;;;5037707;28;19927;-76
2022/06/12 03:34:49;;;;;;;;;;;;;;;;;;5037067;28;19921;-77
2022/06/12 03:37:19;;;;;;;;;;;;;;;;;;5036571;28;19932;-77
2022/06/12 03:39:50;;;;;;;;;;;;;;;;;;5035105;28;19928;-77
2022/06/12 03:42:19;;;;;;;;;;;;;;;;;;5035325;28;20304;-77
2022/06/12 03:44:49;;;;;;;;;;;;;;;;;;5035201;28;19932;-78
2022/06/12 03:47:18;;;;;;;;;;;;;;;;;;5035079;28;20505;-77
2022/06/12 03:49:46;;;;;;;;;;;;;;;;;;5034959;28;20012;-77
2022/06/12 03:52:16;;;;;;;;;;;;;;;;;;5035529;28;19921;-77
2022/06/12 03:54:46;;;;;;;;;;;;;;;;;;5035207;28;19928;-77
2022/06/12 04:00:05;;;;;;;;;;;;;;;;;;5034628;28;20458;-77
2022/06/12 04:02:33;;;;;;;;;;;;;;;;;;5034604;28;20012;-78
2022/06/12 04:05:00;;;;;;;;;;;;;;;;;;5035080;28;20039;-78
2022/06/12 04:07:29;;;;;;;;;;;;;;;;;;5034497;28;20384;-77
2022/06/12 04:09:58;;;;;;;;;;;;;;;;;;5034317;28;19951;-77
2022/06/12 04:12:28;;;;;;;;;;;;;;;;;;5034694;28;20004;-77
2022/06/12 04:15:00;;;;;;;;;;;;;;;;;;5034518;28;19921;-78
2022/06/12 04:17:27;;;;;;;;;;;;;;;;;;5034964;28;19957;-78
2022/06/12 04:20:04;;;;;;;;;;;;;;;;;;5034579;28;19927;-78
2022/06/12 04:22:47;;;;;;;;;;;;;;;;;;5034222;28;20287;-78
2022/06/12 04:25:22;;;;;;;;;;;;;;;;;;5034569;28;20020;-78
2022/06/12 04:27:50;;;;;;;;;;;;;;;;;;5034793;28;20012;-78
2022/06/12 04:30:19;;;;;;;;;;;;;;;;;;5034314;28;19964;-78
2022/06/12 04:32:46;;;;;;;;;;;;;;;;;;5034536;28;20340;-78
2022/06/12 04:35:12;;;;;;;;;;;;;;;;;;5034067;28;19921;-78
2022/06/12 04:37:39;;;;;;;;;;;;;;;;;;5034208;28;19925;-78
2022/06/12 04:40:07;;;;;;;;;;;;;;;;;;5035089;28;20011;-78
2022/06/12 04:42:34;;;;;;;;;;;;;;;;;;5038692;28;19976;-78
2022/06/12 04:45:05;;;;;;;;;;;;;;;;;;5038425;28;20324;-79
2022/06/12 04:47:32;;;;;;;;;;;;;;;;;;5036148;28;20012;-78
2022/06/12 04:50:01;;;;;;;;;;;;;;;;;;5034692;28;19960;-77
2022/06/12 04:52:28;;;;;;;;;;;;;;;;;;5040352;28;19928;-77
2022/06/12 04:54:57;;;;;;;;;;;;;;;;;;5039715;28;19920;-77
2022/06/12 04:57:25;;;;;;;;;;;;;;;;;;5039238;28;19960;-77
2022/06/12 04:59:51;;;;;;;;;;;;;;;;;;5036468;28;19921;-77
2022/06/12 05:02:19;;;;;;;;;;;;;;;;;;5033370;28;19964;-76
2022/06/12 05:04:47;;;;;;;;;;;;;;;;;;5032972;28;20338;-76
2022/06/12 05:07:14;;;;;;;;;;;;;;;;;;5033499;28;19943;-76
2022/06/12 05:09:41;;;;;;;;;;;;;;;;;;5033364;28;20007;-77
2022/06/12 05:12:08;;;;;;;;;;;;;;;;;;5033399;28;19927;-77
2022/06/12 05:14:35;;;;;;;;;;;;;;;;;;5033182;28;20301;-77
2022/06/12 05:17:04;;;;;;;;;;;;;;;;;;5033517;28;19921;-78
2022/06/12 05:19:33;;;;;;;;;;;;;;;;;;5033143;28;19967;-77
2022/06/12 05:22:00;;;;;;;;;;;;;;;;;;5033639;28;19921;-77
2022/06/12 05:24:27;;;;;;;;;;;;;;;;;;5033307;28;19949;-78
2022/06/12 05:26:54;;;;;;;;;;;;;;;;;;5033494;28;19921;-77
2022/06/12 05:29:21;;;;;;;;;;;;;;;;;;5032588;28;19921;-78
2022/06/12 05:31:48;;;;;;;;;;;;;;;;;;5032354;28;20376;-78
2022/06/12 05:34:15;;;;;;;;;;;;;;;;;;5032886;28;20009;-77
2022/06/12 05:36:43;;;;;;;;;;;;;;;;;;5033095;28;20015;-77
2022/06/12 05:39:10;;;;;;;;;;;;;;;;;;5032627;28;20003;-78
2022/06/12 05:41:36;;;;;;;;;;;;;;;;;;5032401;28;19952;-77
2022/06/12 05:44:03;;;;;;;;;;;;;;;;;;5032553;28;20007;-77
2022/06/12 05:46:29;;;;;;;;;;;;;;;;;;5032436;28;20380;-77
2022/06/12 05:48:55;;;;;;;;;;;;;;;;;;5033112;28;20015;-77
2022/06/12 05:51:22;;;;;;;;;;;;;;;;;;5032577;28;19921;-76
2022/06/12 05:53:50;;;;;;;;;;;;;;;;;;5033995;28;19975;-77
2022/06/12 05:56:18;;;;;;;;;;;;;;;;;;5033698;28;19921;-76
2022/06/12 05:58:45;;;;;;;;;;;;;;;;;;5032957;28;19960;-76
2022/06/12 06:01:13;;;;;;;;;;;;;;;;;;5032586;28;19928;-75
2022/06/12 06:03:40;;;;;;;;;;;;;;;;;;5032887;28;19998;-76
2022/06/12 06:06:06;;;;;;;;;;;;;;;;;;5032842;28;19921;-76
2022/06/12 06:08:33;;;;;;;;;;;;;;;;;;5033273;28;19921;-77
2022/06/12 06:11:01;;;;;;;;;;;;;;;;;;5032573;28;19953;-77
2022/06/12 06:13:27;;;;;;;;;;;;;;;;;;5033060;28;20339;-77
2022/06/12 06:15:54;;;;;;;;;;;;;;;;;;5033054;28;20020;-77
2022/06/12 06:18:21;;;;;;;;;;;;;;;;;;5032394;28;20003;-77
2022/06/12 06:20:48;;;;;;;;;;;;;;;;;;5031780;28;20016;-77
2022/06/12 06:23:15;;;;;;;;;;;;;;;;;;5032378;28;20003;-77
2022/06/12 06:25:42;;;;;;;;;;;;;;;;;;5034299;28;20015;-78
2022/06/12 06:28:11;;;;;;;;;;;;;;;;;;5034024;28;19925;-77
2022/06/12 06:30:38;;;;;;;;;;;;;;;;;;5031790;28;20386;-77
2022/06/12 06:33:05;;;;;;;;;;;;;;;;;;5032513;28;20359;-77
2022/06/12 06:35:31;;;;;;;;;;;;;;;;;;5032386;28;19927;-77
2022/06/12 06:37:58;;;;;;;;;;;;;;;;;;5032328;28;20046;-77
2022/06/12 06:40:26;;;;;;;;;;;;;;;;;;5031967;28;20474;-77
2022/06/12 06:42:53;;;;;;;;;;;;;;;;;;5032317;28;19968;-77
2022/06/12 06:48:06;;;;;;;;;;;;;;;;;;5032637;28;20359;-77
2022/06/12 06:50:33;;;;;;;;;;;;;;;;;;5031788;28;20346;-77
2022/06/12 06:53:00;;;;;;;;;;;;;;;;;;5036520;28;19921;-79
2022/06/12 06:55:27;;;;;;;;;;;;;;;;;;5046353;28;20379;-78
2022/06/12 06:57:53;;;;;;;;;;;;;;;;;;5041890;28;19960;-78
2022/06/12 07:00:23;;;;;;;;;;;;;;;;;;5043547;28;19921;-78
2022/06/12 07:02:50;;;;;;;;;;;;;;;;;;5044957;28;19976;-78
2022/06/12 07:05:17;;;;;;;;;;;;;;;;;;5043928;28;19952;-78
2022/06/12 07:07:43;;;;;;;;;;;;;;;;;;5039107;28;19924;-78
2022/06/12 07:10:13;;;;;;;;;;;;;;;;;;5035879;28;20015;-77
2022/06/12 07:12:39;;;;;;;;;;;;;;;;;;5038761;28;19929;-77
2022/06/12 07:15:06;;;;;;;;;;;;;;;;;;5040625;28;19921;-78
2022/06/12 07:17:34;;;;;;;;;;;;;;;;;;5048391;28;20396;-78
2022/06/12 07:20:00;;;;;;;;;;;;;;;;;;5042753;28;19921;-78
2022/06/12 07:22:27;;;;;;;;;;;;;;;;;;5046654;28;19921;-78
2022/06/12 07:24:53;;;;;;;;;;;;;;;;;;5048353;28;20003;-78
2022/06/12 07:27:20;;;;;;;;;;;;;;;;;;5041564;28;20004;-78
2022/06/12 07:29:46;;;;;;;;;;;;;;;;;;5038650;28;20457;-78
2022/06/12 07:32:13;;;;;;;;;;;;;;;;;;5038775;28;19976;-78
2022/06/12 07:34:41;;;;;;;;;;;;;;;;;;5037833;28;20007;-78
2022/06/12 07:37:07;;;;;;;;;;;;;;;;;;5037169;28;20290;-76
2022/06/12 07:39:34;;;;;;;;;;;;;;;;;;5036255;28;20011;-78
2022/06/12 07:42:01;;;;;;;;;;;;;;;;;;5036346;28;19921;-78
2022/06/12 07:44:30;;;;;;;;;;;;;;;;;;5034493;28;19929;-77
2022/06/12 07:46:58;;;;;;;;;;;;;;;;;;5035726;28;19928;-77
2022/06/12 07:49:25;;;;;;;;;;;;;;;;;;5034652;28;20382;-78
2022/06/12 07:51:54;;;;;;;;;;;;;;;;;;5035345;28;19921;-78
2022/06/12 07:54:21;;;;;;;;;;;;;;;;;;5035152;28;20325;-77
2022/06/12 07:56:48;;;;;;;;;;;;;;;;;;5035344;28;19925;-77
2022/06/12 07:59:15;;;;;;;;;;;;;;;;;;5037139;28;19921;-78
2022/06/12 08:01:42;;;;;;;;;;;;;;;;;;5034973;28;20015;-77
2022/06/12 08:04:09;;;;;;;;;;;;;;;;;;5034514;28;19928;-78
2022/06/12 08:06:36;;;;;;;;;;;;;;;;;;5034524;28;20000;-78
2022/06/12 08:09:05;;;;;;;;;;;;;;;;;;5035814;28;20392;-78
2022/06/12 08:11:32;;;;;;;;;;;;;;;;;;5035404;28;20438;-78
2022/06/12 08:13:59;;;;;;;;;;;;;;;;;;5034681;28;20310;-77
2022/06/12 08:16:26;;;;;;;;;;;;;;;;;;5034231;28;19921;-77
2022/06/12 08:18:52;;;;;;;;;;;;;;;;;;5036515;28;19921;-80
2022/06/12 08:21:19;;;;;;;;;;;;;;;;;;5045018;28;20024;-80
2022/06/12 08:23:49;;;;;;;;;;;;;;;;;;5046435;28;19960;-78
2022/06/12 08:26:21;;;;;;;;;;;;;;;;;;5041739;28;19928;-80
2022/06/12 08:28:49;;;;;;;;;;;;;;;;;;5043661;28;20020;-82
2022/06/12 08:31:16;;;;;;;;;;;;;;;;;;5051465;28;19961;-78
2022/06/12 08:33:44;;;;;;;;;;;;;;;;;;5054571;28;19921;-80
2022/06/12 08:36:11;;;;;;;;;;;;;;;;;;5054739;28;19921;-78
2022/06/12 08:38:38;;;;;;;;;;;;;;;;;;5055376;28;19921;-79
2022/06/12 08:41:07;;;;;;;;;;;;;;;;;;5054317;28;19921;-80
2022/06/12 08:43:39;;;;;;;;;;;;;;;;;;5054306;28;19931;-79
2022/06/12 08:46:09;;;;;;;;;;;;;;;;;;5067157;22;19948;-61
2022/06/12 08:48:41;;;;;;;;;;;;;;;;;;5032050;28;19920;-60
2022/06/12 08:51:10;;;;;;;;;;;;;;;;;;5031432;28;19948;-60
2022/06/12 08:53:42;;;;;;;;;;;;;;;;;;5032076;28;19952;-61
2022/06/12 08:56:11;;;;;;;;;;;;;;;;;;5031686;28;19920;-60
2022/06/12 08:58:43;;;;;;;;;;;;;;;;;;5031711;28;20374;-60
2022/06/12 09:01:11;;;;;;;;;;;;;;;;;;5031598;28;19925;-62
2022/06/12 09:03:38;;;;;;;;;;;;;;;;;;5031728;28;19950;-62
2022/06/12 09:06:10;;;;;;;;;;;;;;;;;;5030474;28;19957;-61
2022/06/12 09:08:40;;;;;;;;;;;;;;;;;;5031369;28;19921;-60
2022/06/12 09:11:09;;;;;;;;;;;;;;;;;;5031378;28;20653;-61
2022/06/12 09:13:43;;;;;;;;;;;;;;;;;;5031354;28;19967;-61
2022/06/12 09:16:13;;;;;;;;;;;;;;;;;;5031448;28;19921;-60
2022/06/12 09:18:45;;;;;;;;;;;;;;;;;;5031040;28;19921;-65
2022/06/12 09:21:16;;;;;;;;;;;;;;;;;;5030483;28;19925;-60
2022/06/12 09:23:48;;;;;;;;;;;;;;;;;;5031073;28;19921;-60
2022/06/12 09:26:20;;;;;;;;;;;;;;;;;;5030803;28;19929;-61
2022/06/12 09:28:52;;;;;;;;;;;;;;;;;;5030814;28;19921;-57
2022/06/12 09:31:22;;;;;;;;;;;;;;;;;;5030399;28;19944;-63
2022/06/12 09:33:53;;;;;;;;;;;;;;;;;;5031283;28;20321;-59
2022/06/12 09:36:28;;;;;;;;;;;;;;;;;;5031422;28;19925;-65
2022/06/12 09:39:00;;;;;;;;;;;;;;;;;;5031146;28;19929;-60
2022/06/12 09:41:29;;;;;;;;;;;;;;;;;;5030463;28;19921;-61
2022/06/12 09:44:06;;;;;;;;;;;;;;;;;;5030717;28;19922;-61
2022/06/12 09:46:36;;;;;;;;;;;;;;;;;;5031425;28;19925;-62
2022/06/12 09:49:11;;;;;;;;;;;;;;;;;;5030979;28;19921;-63
2022/06/12 09:51:43;;;;;;;;;;;;;;;;;;5030813;28;19933;-62
2022/06/12 09:54:25;;;;;;;;;;;;;;;;;;5030604;28;20404;-64
2022/06/12 09:56:54;;;;;;;;;;;;;;;;;;5030902;28;19921;-63
2022/06/12 09:59:27;;;;;;;;;;;;;;;;;;5030077;28;19927;-63
2022/06/12 10:01:55;;;;;;;;;;;;;;;;;;5030725;28;19925;-61
2022/06/12 10:04:24;;;;;;;;;;;;;;;;;;5030604;28;20289;-62
2022/06/12 10:06:52;;;;;;;;;;;;;;;;;;5030641;28;19929;-62
2022/06/12 10:09:22;;;;;;;;;;;;;;;;;;5030910;28;19921;-61
2022/06/12 10:11:51;;;;;;;;;;;;;;;;;;5030539;28;19921;-62
2022/06/12 10:14:19;;;;;;;;;;;;;;;;;;5030860;28;19967;-61
2022/06/12 10:16:50;;;;;;;;;;;;;;;;;;5030450;28;19921;-63
2022/06/12 10:19:19;;;;;;;;;;;;;;;;;;5030611;28;19921;-62
2022/06/12 10:21:47;;;;;;;;;;;;;;;;;;5030887;28;19939;-62
2022/06/12 10:24:14;;;;;;;;;;;;;;;;;;5030960;28;19929;-61
2022/06/12 10:26:41;;;;;;;;;;;;;;;;;;5030989;28;19931;-62
2022/06/12 10:29:09;;;;;;;;;;;;;;;;;;5030840;28;19928;-62
2022/06/12 10:31:45;;;;;;;;;;;;;;;;;;5030713;28;19925;-64
2022/06/12 10:34:16;;;;;;;;;;;;;;;;;;5033652;28;19921;-62
2022/06/12 10:36:43;;;;;;;;;;;;;;;;;;5034701;28;19925;-63
2022/06/12 10:39:13;;;;;;;;;;;;;;;;;;5034515;28;20044;-62
2022/06/12 10:41:44;;;;;;;;;;;;;;;;;;5034993;28;19975;-58
2022/06/12 10:44:26;;;;;;;;;;;;;;;;;;5033751;28;19975;-62
2022/06/12 10:46:53;;;;;;;;;;;;;;;;;;5033994;28;20356;-62
2022/06/12 10:49:23;;;;;;;;;;;;;;;;;;5034160;28;19944;-62
2022/06/12 10:51:50;;;;;;;;;;;;;;;;;;5034466;28;19975;-63
2022/06/12 10:54:18;;;;;;;;;;;;;;;;;;5034431;28;19928;-62
2022/06/12 10:56:47;;;;;;;;;;;;;;;;;;5034144;28;19931;-62
2022/06/12 10:59:35;;;;;;;;;;;;;;;;;;5033821;28;20434;-61
2022/06/12 11:02:16;;;;;;;;;;;;;;;;;;5034154;28;19921;-65
2022/06/12 11:04:51;;;;;;;;;;;;;;;;;;5033968;28;20267;-62
2022/06/12 11:07:21;;;;;;;;;;;;;;;;;;5034953;28;20348;-63
2022/06/12 11:09:59;;;;;;;;;;;;;;;;;;5034373;28;19921;-62
2022/06/12 11:12:33;;;;;;;;;;;;;;;;;;5033538;28;20377;-63
2022/06/12 11:15:09;;;;;;;;;;;;;;;;;;5034042;28;20343;-61
2022/06/12 11:17:42;;;;;;;;;;;;;;;;;;5033324;28;20501;-63
2022/06/12 11:20:20;;;;;;;;;;;;;;;;;;5033589;28;19921;-62
2022/06/12 11:22:53;;;;;;;;;;;;;;;;;;5033348;28;19921;-61
2022/06/12 11:25:27;;;;;;;;;;;;;;;;;;5033307;28;19921;-63
2022/06/12 11:28:01;;;;;;;;;;;;;;;;;;5033343;28;20294;-62
2022/06/12 11:30:36;;;;;;;;;;;;;;;;;;5033370;28;20366;-63
2022/06/12 11:33:10;;;;;;;;;;;;;;;;;;5033408;28;19921;-63
2022/06/12 11:35:45;;;;;;;;;;;;;;;;;;5033502;28;19921;-62
2022/06/12 11:38:21;;;;;;;;;;;;;;;;;;5033837;28;20358;-62
2022/06/12 11:40:51;;;;;;;;;;;;;;;;;;5033224;28;20455;-61
2022/06/12 11:43:20;;;;;;;;;;;;;;;;;;5033328;28;19921;-62
2022/06/12 11:45:54;;;;;;;;;;;;;;;;;;5032649;28;19921;-63
2022/06/12 11:48:28;;;;;;;;;;;;;;;;;;5033518;28;20016;-61
2022/06/12 11:50:59;;;;;;;;;;;;;;;;;;5033548;28;20561;-62
2022/06/12 11:53:32;;;;;;;;;;;;;;;;;;5033194;28;20348;-63
2022/06/12 11:56:01;;;;;;;;;;;;;;;;;;5033834;28;19925;-64
2022/06/12 11:58:40;;;;;;;;;;;;;;;;;;5033035;28;19999;-63
2022/06/12 12:01:11;;;;;;;;;;;;;;;;;;5033365;28;19971;-64
2022/06/12 12:03:59;;;;;;;;;;;;;;;;;;5033257;28;20007;-64
2022/06/12 12:06:33;;;;;;;;;;;;;;;;;;5032656;28;19971;-63
2022/06/12 12:09:07;;;;;;;;;;;;;;;;;;5033088;28;20282;-59
2022/06/12 12:11:35;;;;;;;;;;;;;;;;;;5032630;28;19921;-63
2022/06/12 12:14:03;;;;;;;;;;;;;;;;;;5033289;28;19921;-64
2022/06/12 12:16:32;;;;;;;;;;;;;;;;;;5032996;28;20337;-62
2022/06/12 12:19:01;;;;;;;;;;;;;;;;;;5032431;28;19921;-60
2022/06/12 12:21:32;;;;;;;;;;;;;;;;;;5032811;28;19928;-66
2022/06/12 12:24:00;;;;;;;;;;;;;;;;;;5032416;28;19979;-65
2022/06/12 12:26:31;;;;;;;;;;;;;;;;;;5032257;28;20278;-66
2022/06/12 12:29:00;;;;;;;;;;;;;;;;;;5032848;28;19929;-63
2022/06/12 12:31:27;;;;;;;;;;;;;;;;;;5032541;28;20031;-65
2022/06/12 12:33:55;;;;;;;;;;;;;;;;;;5032110;28;19928;-66
2022/06/12 12:42:06;;;;;;;;;;;;;;;;;;5032584;28;19936;-64
2022/06/12 12:44:34;;;;;;;;;;;;;;;;;;5032175;28;19921;-65
2022/06/12 12:47:02;;;;;;;;;;;;;;;;;;5033251;28;19943;-65
2022/06/12 12:49:29;;;;;;;;;;;;;;;;;;5031437;28;19928;-66
2022/06/12 12:52:08;;;;;;;;;;;;;;;;;;5032245;28;20408;-65
2022/06/12 12:54:47;;;;;;;;;;;;;;;;;;5031957;28;20340;-65
2022/06/12 12:57:15;;;;;;;;;;;;;;;;;;5030752;28;19920;-65
2022/06/12 12:59:43;;;;;;;;;;;;;;;;;;5031853;28;19921;-66
2022/06/12 13:02:23;;;;;;;;;;;;;;;;;;5031893;28;19921;-65
2022/06/12 13:04:50;;;;;;;;;;;;;;;;;;5031347;28;19921;-66
2022/06/12 13:07:21;;;;;;;;;;;;;;;;;;5031782;28;20340;-67
2022/06/12 13:09:59;;;;;;;;;;;;;;;;;;5031589;28;19967;-65
2022/06/12 13:12:38;;;;;;;;;;;;;;;;;;5031938;28;19926;-65
2022/06/12 13:15:13;;;;;;;;;;;;;;;;;;5031525;28;19924;-66
2022/06/12 13:17:45;;;;;;;;;;;;;;;;;;5031758;28;20328;-64
2022/06/12 13:20:20;;;;;;;;;;;;;;;;;;5031380;28;20390;-65
2022/06/12 13:22:51;;;;;;;;;;;;;;;;;;5031673;28;19979;-65
2022/06/12 13:25:22;;;;;;;;;;;;;;;;;;5031091;28;19975;-65
2022/06/12 13:27:50;;;;;;;;;;;;;;;;;;5031744;28;19925;-64
2022/06/12 13:30:18;;;;;;;;;;;;;;;;;;5031089;28;19928;-65
2022/06/12 13:32:45;;;;;;;;;;;;;;;;;;5030725;28;19925;-64
2022/06/12 13:35:19;;;;;;;;;;;;;;;;;;5031267;28;20384;-63
2022/06/12 13:37:46;;;;;;;;;;;;;;;;;;5031460;28;20382;-65
2022/06/12 13:40:25;;;;;;;;;;;;;;;;;;5030922;28;19951;-64
2022/06/12 13:42:52;;;;;;;;;;;;;;;;;;5031369;28;19982;-64
2022/06/12 13:45:20;;;;;;;;;;;;;;;;;;5030998;28;19921;-65
2022/06/12 13:47:47;;;;;;;;;;;;;;;;;;5031077;28;20016;-63
2022/06/12 13:50:18;;;;;;;;;;;;;;;;;;5031177;28;19921;-65
2022/06/12 13:52:48;;;;;;;;;;;;;;;;;;5031073;28;20337;-64
2022/06/12 13:55:24;;;;;;;;;;;;;;;;;;5031042;28;19996;-64
2022/06/12 13:57:52;;;;;;;;;;;;;;;;;;5030951;28;19978;-64
2022/06/12 14:00:30;;;;;;;;;;;;;;;;;;5030789;28;19921;-65
2022/06/12 14:02:57;;;;;;;;;;;;;;;;;;5031106;28;19921;-65
2022/06/12 14:05:25;;;;;;;;;;;;;;;;;;5030924;28;20340;-65
2022/06/12 14:07:52;;;;;;;;;;;;;;;;;;5034776;28;19967;-65
2022/06/12 14:10:23;;;;;;;;;;;;;;;;;;5037599;28;19921;-64
2022/06/12 14:12:51;;;;;;;;;;;;;;;;;;5037212;28;19920;-64
2022/06/12 14:15:29;;;;;;;;;;;;;;;;;;5037489;28;19971;-64
2022/06/12 14:17:57;;;;;;;;;;;;;;;;;;5037764;28;19920;-64
2022/06/12 14:20:25;;;;;;;;;;;;;;;;;;5037197;28;19956;-65
2022/06/12 14:22:52;;;;;;;;;;;;;;;;;;5037184;28;20370;-64
2022/06/12 14:25:22;;;;;;;;;;;;;;;;;;5036966;28;19921;-65
2022/06/12 14:27:58;;;;;;;;;;;;;;;;;;5037148;28;19921;-65
2022/06/12 14:30:39;;;;;;;;;;;;;;;;;;5037136;28;20179;-63
2022/06/12 14:33:20;;;;;;;;;;;;;;;;;;5037076;28;20267;-64
2022/06/12 14:35:47;;;;;;;;;;;;;;;;;;5037022;28;19925;-64
2022/06/12 14:38:17;;;;;;;;;;;;;;;;;;5036836;28;19925;-65
2022/06/12 14:40:44;;;;;;;;;;;;;;;;;;5036742;28;20263;-64
2022/06/12 14:43:14;;;;;;;;;;;;;;;;;;5037410;28;19921;-65
2022/06/12 14:45:42;;;;;;;;;;;;;;;;;;5036375;28;20349;-65
2022/06/12 14:48:11;;;;;;;;;;;;;;;;;;5036737;28;20452;-65
2022/06/12 14:50:37;;;;;;;;;;;;;;;;;;5036440;28;20389;-64
2022/06/12 14:53:04;;;;;;;;;;;;;;;;;;5036676;28;19920;-65
2022/06/12 14:55:31;;;;;;;;;;;;;;;;;;5036754;28;20390;-65
2022/06/12 14:57:57;;;;;;;;;;;;;;;;;;5036679;28;20283;-64
2022/06/12 15:00:25;;;;;;;;;;;;;;;;;;5036127;28;19924;-64
2022/06/12 15:02:52;;;;;;;;;;;;;;;;;;5036548;28;20378;-64
2022/06/12 15:05:22;;;;;;;;;;;;;;;;;;5036531;28;19925;-65
2022/06/12 15:07:48;;;;;;;;;;;;;;;;;;5036729;28;20401;-65
2022/06/12 15:10:15;;;;;;;;;;;;;;;;;;5036270;28;20298;-65
2022/06/12 15:12:41;;;;;;;;;;;;;;;;;;5036590;28;19967;-64
2022/06/12 15:15:10;;;;;;;;;;;;;;;;;;5036231;28;19967;-65
2022/06/12 15:17:38;;;;;;;;;;;;;;;;;;5035717;28;20348;-65
2022/06/12 15:20:06;;;;;;;;;;;;;;;;;;5032563;28;19968;-64
2022/06/12 15:22:32;;;;;;;;;;;;;;;;;;5033338;28;20325;-64
2022/06/12 15:25:00;;;;;;;;;;;;;;;;;;5033194;28;20286;-65
2022/06/12 15:30:14;;;;;;;;;;;;;;;;;;5032971;28;19928;-65
2022/06/12 15:32:43;;;;;;;;;;;;;;;;;;5033370;28;19927;-64
2022/06/12 15:35:15;;;;;;;;;;;;;;;;;;5033309;28;19928;-65
2022/06/12 15:37:42;;;;;;;;;;;;;;;;;;5033038;28;19983;-65
2022/06/12 15:40:14;;;;;;;;;;;;;;;;;;5032740;28;19971;-64
2022/06/12 15:42:41;;;;;;;;;;;;;;;;;;5033271;28;20586;-64
2022/06/12 15:45:08;;;;;;;;;;;;;;;;;;5032950;28;19925;-64
2022/06/12 15:47:34;;;;;;;;;;;;;;;;;;5032769;28;19975;-65
2022/06/12 15:50:02;;;;;;;;;;;;;;;;;;5032834;28;19975;-65
2022/06/12 15:52:31;;;;;;;;;;;;;;;;;;5032504;28;19920;-64
2022/06/12 15:54:57;;;;;;;;;;;;;;;;;;5032714;28;19921;-65
2022/06/12 15:57:24;;;;;;;;;;;;;;;;;;5032646;28;19975;-65
2022/06/12 15:59:50;;;;;;;;;;;;;;;;;;5032445;28;19971;-65
2022/06/12 16:02:18;;;;;;;;;;;;;;;;;;5032927;28;19933;-64
2022/06/12 16:04:45;;;;;;;;;;;;;;;;;;5032921;28;19925;-64
2022/06/12 16:07:13;;;;;;;;;;;;;;;;;;5032645;28;19928;-65
2022/06/12 16:09:40;;;;;;;;;;;;;;;;;;5032147;28;20424;-65
2022/06/12 16:12:07;;;;;;;;;;;;;;;;;;5033002;28;19928;-69
2022/06/12 16:14:34;;;;;;;;;;;;;;;;;;5032641;28;20008;-63
2022/06/12 16:17:00;;;;;;;;;;;;;;;;;;5032840;28;20038;-63
2022/06/12 16:19:27;;;;;;;;;;;;;;;;;;5032429;28;19987;-63
2022/06/12 16:21:53;;;;;;;;;;;;;;;;;;5032067;28;19994;-64
2022/06/12 16:24:21;;;;;;;;;;;;;;;;;;5032482;28;20329;-63
2022/06/12 16:26:51;;;;;;;;;;;;;;;;;;5032356;28;20524;-65
2022/06/12 16:29:18;;;;;;;;;;;;;;;;;;5032236;28;19925;-65
2022/06/12 16:31:45;;;;;;;;;;;;;;;;;;5031377;28;19927;-66
2022/06/12 16:34:11;;;;;;;;;;;;;;;;;;5031889;28;19921;-65
2022/06/12 16:36:39;;;;;;;;;;;;;;;;;;5032333;28;19921;-63
2022/06/12 16:39:07;;;;;;;;;;;;;;;;;;5032246;28;19921;-64
2022/06/12 16:41:49;;;;;;;;;;;;;;;;;;5032327;28;19981;-65
2022/06/12 16:44:16;;;;;;;;;;;;;;;;;;5032257;28;19947;-65
2022/06/12 16:46:44;;;;;;;;;;;;;;;;;;5031833;28;19991;-65
2022/06/12 16:49:11;;;;;;;;;;;;;;;;;;5032164;28;20015;-64
2022/06/12 16:51:51;;;;;;;;;;;;;;;;;;5031811;28;19947;-64
2022/06/12 16:54:17;;;;;;;;;;;;;;;;;;5031913;28;19928;-65
2022/06/12 16:56:45;;;;;;;;;;;;;;;;;;5031950;28;20003;-66
2022/06/12 16:59:12;;;;;;;;;;;;;;;;;;5031662;28;19924;-65
2022/06/12 17:01:38;;;;;;;;;;;;;;;;;;5031754;28;20352;-65
2022/06/12 17:04:05;;;;;;;;;;;;;;;;;;5031671;28;19921;-65
2022/06/12 17:06:32;;;;;;;;;;;;;;;;;;5031399;28;19925;-64
2022/06/12 17:08:58;;;;;;;;;;;;;;;;;;5031391;28;19925;-65
2022/06/12 17:11:25;;;;;;;;;;;;;;;;;;5031005;28;19928;-65
2022/06/12 17:13:53;;;;;;;;;;;;;;;;;;5031607;28;19925;-65
2022/06/12 17:16:19;;;;;;;;;;;;;;;;;;5031590;28;19956;-64
2022/06/12 17:21:30;;;;;;;;;;;;;;;;;;5032033;28;20013;-65
2022/06/12 17:23:57;;;;;;;;;;;;;;;;;;5030406;28;19928;-65
2022/06/12 17:26:23;;;;;;;;;;;;;;;;;;5031535;28;19921;-64